sensor_id;sensor_type;location;lat;lon;timestamp;pressure;altitude;pressure_sealevel;temperature;humidity
20971;BME280;10644;48.834;10.088;2023-04-10T00:01:01;97320.56;;;9.04;55.64
20971;BME280;10644;48.834;10.088;2023-04-10T00:03:27;97302.75;;;9.03;55.96
20971;BME280;10644;48.834;10.088;2023-04-10T00:05:53;97298.34;;;9.06;56.01
20971;BME280;10644;48.834;10.088;2023-04-10T00:08:20;97298.81;;;9.16;55.63
20971;BME280;10644;48.834;10.088;2023-04-10T00:10:45;97303.59;;;9.25;55.13
20971;BME280;10644;48.834;10.088;2023-04-10T00:13:11;97311.06;;;9.29;55.18
20971;BME280;10644;48.834;10.088;2023-04-10T00:15:36;97308.00;;;9.21;55.12
20971;BME280;10644;48.834;10.088;2023-04-10T00:18:01;97304.63;;;9.19;55.52
20971;BME280;10644;48.834;10.088;2023-04-10T00:20:27;97307.75;;;9.27;55.91
20971;BME280;10644;48.834;10.088;2023-04-10T00:22:52;97308.00;;;9.21;55.88
20971;BME280;10644;48.834;10.088;2023-04-10T00:25:18;97299.63;;;9.18;55.97
20971;BME280;10644;48.834;10.088;2023-04-10T00:27:46;97303.88;;;9.17;56.13
20971;BME280;10644;48.834;10.088;2023-04-10T00:30:11;97293.00;;;9.12;55.99
20971;BME280;10644;48.834;10.088;2023-04-10T00:32:37;97292.91;;;9.15;55.95
20971;BME280;10644;48.834;10.088;2023-04-10T00:35:02;97300.13;;;9.04;56.58
20971;BME280;10644;48.834;10.088;2023-04-10T00:37:28;97295.31;;;8.97;57.04
20971;BME280;10644;48.834;10.088;2023-04-10T00:39:53;97282.28;;;8.81;56.96
20971;BME280;10644;48.834;10.088;2023-04-10T00:42:21;97292.38;;;8.84;57.00
20971;BME280;10644;48.834;10.088;2023-04-10T00:44:46;97284.06;;;8.79;56.95
20971;BME280;10644;48.834;10.088;2023-04-10T00:47:12;97285.66;;;8.82;56.92
20971;BME280;10644;48.834;10.088;2023-04-10T00:49:39;97292.03;;;8.93;56.13
20971;BME280;10644;48.834;10.088;2023-04-10T00:52:07;97277.47;;;8.95;56.22
20971;BME280;10644;48.834;10.088;2023-04-10T00:54:33;97288.81;;;8.88;57.07
20971;BME280;10644;48.834;10.088;2023-04-10T00:57:01;97294.84;;;8.64;57.13
20971;BME280;10644;48.834;10.088;2023-04-10T00:59:27;97291.03;;;8.74;57.20
20971;BME280;10644;48.834;10.088;2023-04-10T01:01:52;97295.56;;;8.68;57.39
20971;BME280;10644;48.834;10.088;2023-04-10T01:04:18;97291.84;;;8.53;57.62
20971;BME280;10644;48.834;10.088;2023-04-10T01:09:47;97292.44;;;8.60;57.85
20971;BME280;10644;48.834;10.088;2023-04-10T01:14:54;97285.19;;;8.49;57.78
20971;BME280;10644;48.834;10.088;2023-04-10T01:17:34;97286.03;;;8.50;57.34
20971;BME280;10644;48.834;10.088;2023-04-10T01:22:40;97268.88;;;8.30;58.55
20971;BME280;10644;48.834;10.088;2023-04-10T01:25:29;97279.97;;;8.52;57.45
20971;BME280;10644;48.834;10.088;2023-04-10T01:28:10;97281.88;;;8.47;57.80
20971;BME280;10644;48.834;10.088;2023-04-10T01:30:36;97285.72;;;8.34;58.39
20971;BME280;10644;48.834;10.088;2023-04-10T01:33:02;97276.97;;;8.17;58.58
20971;BME280;10644;48.834;10.088;2023-04-10T01:35:31;97281.91;;;8.23;58.60
20971;BME280;10644;48.834;10.088;2023-04-10T01:38:00;97279.75;;;8.11;59.24
20971;BME280;10644;48.834;10.088;2023-04-10T01:40:26;97270.34;;;8.11;58.72
20971;BME280;10644;48.834;10.088;2023-04-10T01:42:55;97278.56;;;8.21;58.94
20971;BME280;10644;48.834;10.088;2023-04-10T01:45:24;97279.41;;;8.21;58.69
20971;BME280;10644;48.834;10.088;2023-04-10T01:47:54;97279.94;;;8.29;58.31
20971;BME280;10644;48.834;10.088;2023-04-10T01:50:20;97282.41;;;8.55;57.94
20971;BME280;10644;48.834;10.088;2023-04-10T01:52:49;97284.47;;;8.46;58.53
20971;BME280;10644;48.834;10.088;2023-04-10T01:55:16;97277.97;;;8.37;58.64
20971;BME280;10644;48.834;10.088;2023-04-10T01:57:43;97274.03;;;8.29;59.04
20971;BME280;10644;48.834;10.088;2023-04-10T02:00:10;97271.03;;;8.16;59.66
20971;BME280;10644;48.834;10.088;2023-04-10T02:02:35;97274.47;;;8.15;59.18
20971;BME280;10644;48.834;10.088;2023-04-10T02:05:01;97282.19;;;8.14;59.35
20971;BME280;10644;48.834;10.088;2023-04-10T02:07:35;97279.53;;;8.17;58.92
20971;BME280;10644;48.834;10.088;2023-04-10T02:10:14;97282.47;;;8.54;57.80
20971;BME280;10644;48.834;10.088;2023-04-10T02:12:49;97275.84;;;8.71;55.78
20971;BME280;10644;48.834;10.088;2023-04-10T02:15:19;97280.03;;;8.95;55.09
20971;BME280;10644;48.834;10.088;2023-04-10T02:17:46;97282.53;;;9.18;54.12
20971;BME280;10644;48.834;10.088;2023-04-10T02:20:13;97281.06;;;9.34;53.58
20971;BME280;10644;48.834;10.088;2023-04-10T02:22:40;97286.31;;;9.51;53.18
20971;BME280;10644;48.834;10.088;2023-04-10T02:25:08;97284.94;;;9.64;52.91
20971;BME280;10644;48.834;10.088;2023-04-10T02:27:35;97288.66;;;9.77;52.46
20971;BME280;10644;48.834;10.088;2023-04-10T02:30:01;97288.16;;;9.89;52.49
20971;BME280;10644;48.834;10.088;2023-04-10T02:32:31;97287.75;;;9.98;52.12
20971;BME280;10644;48.834;10.088;2023-04-10T02:34:59;97280.63;;;10.06;51.80
20971;BME280;10644;48.834;10.088;2023-04-10T02:37:26;97284.59;;;10.13;51.18
20971;BME280;10644;48.834;10.088;2023-04-10T02:39:52;97287.47;;;10.06;51.02
20971;BME280;10644;48.834;10.088;2023-04-10T02:42:18;97274.78;;;10.03;51.07
20971;BME280;10644;48.834;10.088;2023-04-10T02:44:44;97286.34;;;10.13;51.51
20971;BME280;10644;48.834;10.088;2023-04-10T02:47:09;97285.50;;;10.12;51.06
20971;BME280;10644;48.834;10.088;2023-04-10T02:49:35;97272.69;;;10.12;50.93
20971;BME280;10644;48.834;10.088;2023-04-10T02:52:00;97280.13;;;10.18;50.69
20971;BME280;10644;48.834;10.088;2023-04-10T02:54:26;97268.06;;;10.20;50.97
20971;BME280;10644;48.834;10.088;2023-04-10T02:56:55;97270.84;;;10.16;50.40
20971;BME280;10644;48.834;10.088;2023-04-10T02:59:21;97277.19;;;10.07;50.28
20971;BME280;10644;48.834;10.088;2023-04-10T03:01:47;97265.38;;;10.03;50.49
20971;BME280;10644;48.834;10.088;2023-04-10T03:04:12;97256.75;;;10.06;50.81
20971;BME280;10644;48.834;10.088;2023-04-10T03:06:37;97262.47;;;10.12;50.34
20971;BME280;10644;48.834;10.088;2023-04-10T03:09:03;97257.28;;;10.14;50.07
20971;BME280;10644;48.834;10.088;2023-04-10T03:11:29;97252.16;;;10.14;50.12
20971;BME280;10644;48.834;10.088;2023-04-10T03:13:55;97256.19;;;10.19;50.18
20971;BME280;10644;48.834;10.088;2023-04-10T03:16:22;97259.00;;;9.93;49.84
20971;BME280;10644;48.834;10.088;2023-04-10T03:18:47;97253.56;;;9.81;50.20
20971;BME280;10644;48.834;10.088;2023-04-10T03:21:13;97252.44;;;9.86;50.38
20971;BME280;10644;48.834;10.088;2023-04-10T03:23:38;97252.03;;;9.97;50.17
20971;BME280;10644;48.834;10.088;2023-04-10T03:26:06;97255.34;;;9.99;50.18
20971;BME280;10644;48.834;10.088;2023-04-10T03:28:31;97244.91;;;10.03;49.83
20971;BME280;10644;48.834;10.088;2023-04-10T03:30:59;97243.16;;;10.05;50.16
20971;BME280;10644;48.834;10.088;2023-04-10T03:33:25;97228.84;;;10.00;50.67
20971;BME280;10644;48.834;10.088;2023-04-10T03:35:50;97233.91;;;10.01;50.16
20971;BME280;10644;48.834;10.088;2023-04-10T03:38:16;97226.97;;;9.85;50.78
20971;BME280;10644;48.834;10.088;2023-04-10T03:40:41;97231.19;;;9.86;50.34
20971;BME280;10644;48.834;10.088;2023-04-10T03:43:06;97230.06;;;9.91;50.52
20971;BME280;10644;48.834;10.088;2023-04-10T03:45:32;97229.31;;;9.89;49.99
20971;BME280;10644;48.834;10.088;2023-04-10T03:47:59;97242.22;;;9.86;50.52
20971;BME280;10644;48.834;10.088;2023-04-10T03:50:25;97243.19;;;9.84;49.85
20971;BME280;10644;48.834;10.088;2023-04-10T03:52:50;97239.91;;;9.80;50.39
20971;BME280;10644;48.834;10.088;2023-04-10T03:55:16;97239.09;;;9.80;49.89
20971;BME280;10644;48.834;10.088;2023-04-10T03:57:45;97245.94;;;9.79;49.86
20971;BME280;10644;48.834;10.088;2023-04-10T04:00:12;97250.31;;;9.77;50.43
20971;BME280;10644;48.834;10.088;2023-04-10T04:02:38;97259.75;;;9.75;49.71
20971;BME280;10644;48.834;10.088;2023-04-10T04:05:03;97257.06;;;9.78;49.51
20971;BME280;10644;48.834;10.088;2023-04-10T04:07:29;97251.19;;;9.76;49.68
20971;BME280;10644;48.834;10.088;2023-04-10T04:09:54;97252.81;;;9.79;49.80
20971;BME280;10644;48.834;10.088;2023-04-10T04:12:19;97266.28;;;9.82;50.04
20971;BME280;10644;48.834;10.088;2023-04-10T04:14:45;97251.75;;;9.83;49.81
20971;BME280;10644;48.834;10.088;2023-04-10T04:17:10;97255.22;;;9.82;49.45
20971;BME280;10644;48.834;10.088;2023-04-10T04:19:36;97252.84;;;9.77;50.37
20971;BME280;10644;48.834;10.088;2023-04-10T04:22:01;97247.22;;;9.69;49.57
20971;BME280;10644;48.834;10.088;2023-04-10T04:24:27;97250.72;;;9.67;49.99
20971;BME280;10644;48.834;10.088;2023-04-10T04:26:52;97246.81;;;9.58;50.22
20971;BME280;10644;48.834;10.088;2023-04-10T04:29:17;97252.31;;;9.49;50.64
20971;BME280;10644;48.834;10.088;2023-04-10T04:31:43;97244.59;;;9.51;50.39
20971;BME280;10644;48.834;10.088;2023-04-10T04:34:08;97255.44;;;9.56;50.19
20971;BME280;10644;48.834;10.088;2023-04-10T04:36:33;97245.56;;;9.48;50.00
20971;BME280;10644;48.834;10.088;2023-04-10T04:38:59;97253.84;;;9.53;50.21
20971;BME280;10644;48.834;10.088;2023-04-10T04:41:24;97258.84;;;9.56;50.01
20971;BME280;10644;48.834;10.088;2023-04-10T04:43:49;97251.88;;;9.40;50.89
20971;BME280;10644;48.834;10.088;2023-04-10T04:46:17;97248.06;;;9.28;50.30
20971;BME280;10644;48.834;10.088;2023-04-10T04:48:42;97258.88;;;9.35;50.46
20971;BME280;10644;48.834;10.088;2023-04-10T04:51:08;97247.06;;;9.32;50.44
20971;BME280;10644;48.834;10.088;2023-04-10T04:53:33;97253.69;;;9.36;50.27
20971;BME280;10644;48.834;10.088;2023-04-10T04:55:58;97248.81;;;9.30;50.55
20971;BME280;10644;48.834;10.088;2023-04-10T04:58:24;97254.81;;;8.65;52.85
20971;BME280;10644;48.834;10.088;2023-04-10T05:00:52;97253.00;;;8.45;53.93
20971;BME280;10644;48.834;10.088;2023-04-10T05:03:19;97259.25;;;8.37;54.45
20971;BME280;10644;48.834;10.088;2023-04-10T05:05:44;97243.88;;;7.91;56.78
20971;BME280;10644;48.834;10.088;2023-04-10T05:08:10;97243.72;;;7.95;56.47
20971;BME280;10644;48.834;10.088;2023-04-10T05:10:35;97240.34;;;7.70;57.55
20971;BME280;10644;48.834;10.088;2023-04-10T05:13:01;97236.09;;;7.46;58.33
20971;BME280;10644;48.834;10.088;2023-04-10T05:15:26;97234.66;;;7.38;59.35
20971;BME280;10644;48.834;10.088;2023-04-10T05:17:51;97244.63;;;7.45;58.79
20971;BME280;10644;48.834;10.088;2023-04-10T05:20:18;97244.91;;;7.36;58.97
20971;BME280;10644;48.834;10.088;2023-04-10T05:22:46;97241.09;;;7.48;59.10
20971;BME280;10644;48.834;10.088;2023-04-10T05:25:11;97242.09;;;7.44;59.40
20971;BME280;10644;48.834;10.088;2023-04-10T05:27:37;97242.88;;;7.46;59.71
20971;BME280;10644;48.834;10.088;2023-04-10T05:30:02;97242.72;;;7.50;58.89
20971;BME280;10644;48.834;10.088;2023-04-10T05:32:28;97239.69;;;7.39;59.70
20971;BME280;10644;48.834;10.088;2023-04-10T05:34:53;97238.56;;;7.48;59.11
20971;BME280;10644;48.834;10.088;2023-04-10T05:37:19;97226.44;;;7.54;58.98
20971;BME280;10644;48.834;10.088;2023-04-10T05:39:44;97232.19;;;7.61;58.90
20971;BME280;10644;48.834;10.088;2023-04-10T05:42:11;97229.00;;;7.54;59.15
20971;BME280;10644;48.834;10.088;2023-04-10T05:44:38;97227.81;;;7.64;58.85
20971;BME280;10644;48.834;10.088;2023-04-10T05:47:03;97224.00;;;7.76;58.43
20971;BME280;10644;48.834;10.088;2023-04-10T05:49:29;97227.59;;;7.70;58.58
20971;BME280;10644;48.834;10.088;2023-04-10T05:51:54;97237.25;;;7.62;58.96
20971;BME280;10644;48.834;10.088;2023-04-10T05:54:19;97226.28;;;7.83;58.54
20971;BME280;10644;48.834;10.088;2023-04-10T05:56:47;97230.56;;;8.07;57.43
20971;BME280;10644;48.834;10.088;2023-04-10T05:59:12;97231.69;;;8.23;57.00
20971;BME280;10644;48.834;10.088;2023-04-10T06:01:38;97225.41;;;8.32;56.72
20971;BME280;10644;48.834;10.088;2023-04-10T06:04:04;97226.03;;;8.38;56.93
20971;BME280;10644;48.834;10.088;2023-04-10T06:06:31;97231.59;;;8.49;56.48
20971;BME280;10644;48.834;10.088;2023-04-10T06:08:58;97225.41;;;8.55;56.29
20971;BME280;10644;48.834;10.088;2023-04-10T06:11:26;97228.22;;;8.92;54.97
20971;BME280;10644;48.834;10.088;2023-04-10T06:13:53;97231.56;;;9.15;53.94
20971;BME280;10644;48.834;10.088;2023-04-10T06:16:19;97231.38;;;9.20;53.65
20971;BME280;10644;48.834;10.088;2023-04-10T06:18:45;97233.72;;;9.24;53.30
20971;BME280;10644;48.834;10.088;2023-04-10T06:21:11;97228.03;;;9.39;53.10
20971;BME280;10644;48.834;10.088;2023-04-10T06:23:37;97217.81;;;9.59;53.05
20971;BME280;10644;48.834;10.088;2023-04-10T06:26:02;97208.34;;;9.61;52.85
20971;BME280;10644;48.834;10.088;2023-04-10T06:28:28;97218.69;;;9.78;52.70
20971;BME280;10644;48.834;10.088;2023-04-10T06:30:55;97217.47;;;9.87;52.07
20971;BME280;10644;48.834;10.088;2023-04-10T06:33:24;97218.31;;;9.87;52.23
20971;BME280;10644;48.834;10.088;2023-04-10T06:35:49;97214.69;;;10.13;51.91
20971;BME280;10644;48.834;10.088;2023-04-10T06:38:15;97214.25;;;10.22;51.42
20971;BME280;10644;48.834;10.088;2023-04-10T06:40:41;97218.84;;;10.34;51.21
20971;BME280;10644;48.834;10.088;2023-04-10T06:43:06;97212.47;;;10.42;50.72
20971;BME280;10644;48.834;10.088;2023-04-10T06:45:31;97216.00;;;10.58;50.76
20971;BME280;10644;48.834;10.088;2023-04-10T06:47:57;97219.94;;;10.65;50.30
20971;BME280;10644;48.834;10.088;2023-04-10T06:50:22;97223.34;;;10.66;50.12
20971;BME280;10644;48.834;10.088;2023-04-10T06:52:47;97217.59;;;10.79;50.26
20971;BME280;10644;48.834;10.088;2023-04-10T06:55:17;97215.38;;;10.90;50.49
20971;BME280;10644;48.834;10.088;2023-04-10T06:57:42;97224.88;;;11.05;49.60
20971;BME280;10644;48.834;10.088;2023-04-10T07:00:08;97226.91;;;10.99;49.71
20971;BME280;10644;48.834;10.088;2023-04-10T07:02:34;97212.06;;;11.05;49.67
20971;BME280;10644;48.834;10.088;2023-04-10T07:04:59;97212.69;;;11.10;49.93
20971;BME280;10644;48.834;10.088;2023-04-10T07:07:24;97209.81;;;11.16;49.62
20971;BME280;10644;48.834;10.088;2023-04-10T07:09:50;97207.81;;;11.23;49.62
20971;BME280;10644;48.834;10.088;2023-04-10T07:12:18;97208.66;;;11.23;49.74
20971;BME280;10644;48.834;10.088;2023-04-10T07:14:43;97208.78;;;11.37;49.43
20971;BME280;10644;48.834;10.088;2023-04-10T07:17:09;97210.63;;;11.52;49.40
20971;BME280;10644;48.834;10.088;2023-04-10T07:19:34;97204.31;;;11.59;48.76
20971;BME280;10644;48.834;10.088;2023-04-10T07:22:00;97210.88;;;11.65;48.76
20971;BME280;10644;48.834;10.088;2023-04-10T07:24:25;97205.81;;;11.80;48.32
20971;BME280;10644;48.834;10.088;2023-04-10T07:26:51;97214.41;;;11.79;48.84
20971;BME280;10644;48.834;10.088;2023-04-10T07:29:17;97204.88;;;11.98;48.34
20971;BME280;10644;48.834;10.088;2023-04-10T07:31:42;97222.72;;;11.84;48.31
20971;BME280;10644;48.834;10.088;2023-04-10T07:34:09;97212.19;;;12.06;48.11
20971;BME280;10644;48.834;10.088;2023-04-10T07:36:35;97205.56;;;12.17;47.76
20971;BME280;10644;48.834;10.088;2023-04-10T07:39:00;97202.13;;;12.18;47.46
20971;BME280;10644;48.834;10.088;2023-04-10T07:41:25;97219.22;;;12.02;48.13
20971;BME280;10644;48.834;10.088;2023-04-10T07:43:51;97218.56;;;11.82;48.01
20971;BME280;10644;48.834;10.088;2023-04-10T07:46:16;97218.72;;;11.62;48.77
20971;BME280;10644;48.834;10.088;2023-04-10T07:48:42;97219.38;;;11.82;48.01
20971;BME280;10644;48.834;10.088;2023-04-10T07:51:08;97217.41;;;12.04;48.17
20971;BME280;10644;48.834;10.088;2023-04-10T07:53:36;97225.09;;;12.04;48.09
20971;BME280;10644;48.834;10.088;2023-04-10T07:56:01;97209.50;;;12.24;47.80
20971;BME280;10644;48.834;10.088;2023-04-10T07:58:27;97202.22;;;12.32;47.36
20971;BME280;10644;48.834;10.088;2023-04-10T08:00:52;97217.22;;;12.24;47.52
20971;BME280;10644;48.834;10.088;2023-04-10T08:03:17;97223.50;;;12.02;48.22
20971;BME280;10644;48.834;10.088;2023-04-10T08:05:49;97220.41;;;11.95;48.86
20971;BME280;10644;48.834;10.088;2023-04-10T08:08:15;97226.31;;;11.97;48.89
20971;BME280;10644;48.834;10.088;2023-04-10T08:10:40;97216.31;;;12.41;47.87
20971;BME280;10644;48.834;10.088;2023-04-10T08:13:06;97212.81;;;12.74;46.95
20971;BME280;10644;48.834;10.088;2023-04-10T08:15:31;97225.56;;;12.91;46.35
20971;BME280;10644;48.834;10.088;2023-04-10T08:17:57;97223.09;;;13.05;45.78
20971;BME280;10644;48.834;10.088;2023-04-10T08:20:25;97217.22;;;13.03;46.03
20971;BME280;10644;48.834;10.088;2023-04-10T08:22:50;97214.13;;;13.28;45.51
20971;BME280;10644;48.834;10.088;2023-04-10T08:25:15;97226.03;;;13.44;45.41
20971;BME280;10644;48.834;10.088;2023-04-10T08:27:41;97214.78;;;13.31;45.10
20971;BME280;10644;48.834;10.088;2023-04-10T08:30:07;97219.00;;;13.32;45.17
20971;BME280;10644;48.834;10.088;2023-04-10T08:32:32;97216.81;;;13.69;44.15
20971;BME280;10644;48.834;10.088;2023-04-10T08:34:57;97212.44;;;13.42;43.98
20971;BME280;10644;48.834;10.088;2023-04-10T08:37:24;97209.28;;;13.37;44.85
20971;BME280;10644;48.834;10.088;2023-04-10T08:39:50;97208.94;;;13.43;44.72
20971;BME280;10644;48.834;10.088;2023-04-10T08:42:16;97215.09;;;13.70;44.06
20971;BME280;10644;48.834;10.088;2023-04-10T08:44:41;97221.19;;;13.97;43.28
20971;BME280;10644;48.834;10.088;2023-04-10T08:47:07;97211.63;;;14.13;43.02
20971;BME280;10644;48.834;10.088;2023-04-10T08:52:26;97198.22;;;14.36;41.59
20971;BME280;10644;48.834;10.088;2023-04-10T08:54:58;97198.31;;;14.20;42.69
20971;BME280;10644;48.834;10.088;2023-04-10T08:57:24;97198.16;;;14.23;42.69
20971;BME280;10644;48.834;10.088;2023-04-10T08:59:51;97202.63;;;14.20;42.19
20971;BME280;10644;48.834;10.088;2023-04-10T09:02:17;97197.69;;;14.45;42.03
20971;BME280;10644;48.834;10.088;2023-04-10T09:04:51;97199.84;;;14.65;41.98
20971;BME280;10644;48.834;10.088;2023-04-10T09:07:19;97186.41;;;14.74;41.72
20971;BME280;10644;48.834;10.088;2023-04-10T09:09:45;97180.63;;;14.97;41.47
20971;BME280;10644;48.834;10.088;2023-04-10T09:12:12;97189.75;;;15.15;40.80
20971;BME280;10644;48.834;10.088;2023-04-10T09:14:40;97182.66;;;14.92;40.96
20971;BME280;10644;48.834;10.088;2023-04-10T09:17:17;97184.91;;;14.84;41.21
20971;BME280;10644;48.834;10.088;2023-04-10T09:20:19;97180.13;;;15.31;41.17
20971;BME280;10644;48.834;10.088;2023-04-10T09:22:44;97183.63;;;15.44;39.92
20971;BME280;10644;48.834;10.088;2023-04-10T09:25:30;97170.03;;;15.67;39.05
20971;BME280;10644;48.834;10.088;2023-04-10T09:28:04;97165.34;;;15.72;39.61
20971;BME280;10644;48.834;10.088;2023-04-10T09:30:41;97161.97;;;15.84;40.23
20971;BME280;10644;48.834;10.088;2023-04-10T09:33:23;97160.19;;;15.72;39.04
20971;BME280;10644;48.834;10.088;2023-04-10T09:35:51;97157.88;;;15.55;39.42
20971;BME280;10644;48.834;10.088;2023-04-10T09:38:18;97155.53;;;15.52;39.75
20971;BME280;10644;48.834;10.088;2023-04-10T09:40:45;97161.22;;;15.82;39.50
20971;BME280;10644;48.834;10.088;2023-04-10T09:43:25;97142.53;;;15.91;39.35
20971;BME280;10644;48.834;10.088;2023-04-10T09:45:55;97138.59;;;15.98;39.84
20971;BME280;10644;48.834;10.088;2023-04-10T09:48:22;97136.81;;;16.23;39.14
20971;BME280;10644;48.834;10.088;2023-04-10T09:50:48;97131.66;;;16.11;39.57
20971;BME280;10644;48.834;10.088;2023-04-10T09:53:16;97131.81;;;16.58;38.84
20971;BME280;10644;48.834;10.088;2023-04-10T09:55:44;97114.34;;;16.85;37.30
20971;BME280;10644;48.834;10.088;2023-04-10T09:58:15;97113.34;;;16.75;35.95
20971;BME280;10644;48.834;10.088;2023-04-10T10:00:48;97125.13;;;16.79;36.04
20971;BME280;10644;48.834;10.088;2023-04-10T10:03:18;97104.06;;;17.07;35.83
20971;BME280;10644;48.834;10.088;2023-04-10T10:05:48;97109.41;;;17.16;35.61
20971;BME280;10644;48.834;10.088;2023-04-10T10:08:15;97109.66;;;17.24;34.92
20971;BME280;10644;48.834;10.088;2023-04-10T10:10:46;97112.25;;;17.24;35.26
20971;BME280;10644;48.834;10.088;2023-04-10T10:13:28;97107.81;;;17.37;34.94
20971;BME280;10644;48.834;10.088;2023-04-10T10:16:03;97114.28;;;17.55;34.39
20971;BME280;10644;48.834;10.088;2023-04-10T10:18:43;97102.41;;;17.64;34.43
20971;BME280;10644;48.834;10.088;2023-04-10T10:21:12;97087.06;;;17.61;33.88
20971;BME280;10644;48.834;10.088;2023-04-10T10:23:39;97097.22;;;17.75;34.52
20971;BME280;10644;48.834;10.088;2023-04-10T10:26:05;97088.25;;;17.79;33.47
20971;BME280;10644;48.834;10.088;2023-04-10T10:28:32;97081.78;;;17.84;33.74
20971;BME280;10644;48.834;10.088;2023-04-10T10:30:59;97085.31;;;18.05;33.55
20971;BME280;10644;48.834;10.088;2023-04-10T10:33:25;97084.53;;;18.38;33.41
20971;BME280;10644;48.834;10.088;2023-04-10T10:35:51;97060.28;;;18.59;32.72
20971;BME280;10644;48.834;10.088;2023-04-10T10:38:17;97071.81;;;18.66;33.12
20971;BME280;10644;48.834;10.088;2023-04-10T10:46:12;97054.75;;;19.16;32.15
20971;BME280;10644;48.834;10.088;2023-04-10T10:48:38;97044.53;;;19.35;31.73
20971;BME280;10644;48.834;10.088;2023-04-10T10:51:04;97055.47;;;19.18;31.55
20971;BME280;10644;48.834;10.088;2023-04-10T10:53:36;97041.75;;;19.27;31.87
20971;BME280;10644;48.834;10.088;2023-04-10T10:58:53;97042.75;;;19.04;31.60
20971;BME280;10644;48.834;10.088;2023-04-10T11:01:19;97035.63;;;19.17;31.69
20971;BME280;10644;48.834;10.088;2023-04-10T11:03:46;97026.25;;;19.46;31.76
20971;BME280;10644;48.834;10.088;2023-04-10T11:06:18;97024.72;;;19.64;31.75
20971;BME280;10644;48.834;10.088;2023-04-10T11:08:51;97026.22;;;19.66;31.64
20971;BME280;10644;48.834;10.088;2023-04-10T11:11:21;97020.91;;;19.68;31.48
20971;BME280;10644;48.834;10.088;2023-04-10T11:16:23;97030.50;;;19.47;31.28
20971;BME280;10644;48.834;10.088;2023-04-10T11:19:07;97009.06;;;19.54;31.07
20971;BME280;10644;48.834;10.088;2023-04-10T11:22:00;97015.25;;;19.93;31.42
20971;BME280;10644;48.834;10.088;2023-04-10T11:24:26;97011.19;;;20.00;29.99
20971;BME280;10644;48.834;10.088;2023-04-10T11:26:52;97012.34;;;20.07;29.74
20971;BME280;10644;48.834;10.088;2023-04-10T11:31:59;97014.94;;;20.07;28.79
20971;BME280;10644;48.834;10.088;2023-04-10T11:34:25;97007.34;;;20.04;28.85
20971;BME280;10644;48.834;10.088;2023-04-10T11:39:40;96999.41;;;19.96;28.75
20971;BME280;10644;48.834;10.088;2023-04-10T11:42:08;97005.22;;;20.09;29.42
20971;BME280;10644;48.834;10.088;2023-04-10T11:44:38;97006.91;;;20.29;28.85
20971;BME280;10644;48.834;10.088;2023-04-10T11:47:03;96995.97;;;20.35;27.74
20971;BME280;10644;48.834;10.088;2023-04-10T11:49:31;96996.53;;;20.48;28.13
20971;BME280;10644;48.834;10.088;2023-04-10T11:51:57;96996.28;;;20.51;28.05
20971;BME280;10644;48.834;10.088;2023-04-10T11:54:24;96986.13;;;20.67;28.71
20971;BME280;10644;48.834;10.088;2023-04-10T11:57:03;96987.53;;;20.90;29.42
20971;BME280;10644;48.834;10.088;2023-04-10T11:59:37;96981.22;;;21.02;27.79
20971;BME280;10644;48.834;10.088;2023-04-10T12:02:13;96985.06;;;20.98;28.03
20971;BME280;10644;48.834;10.088;2023-04-10T12:04:40;96979.81;;;21.07;27.92
20971;BME280;10644;48.834;10.088;2023-04-10T12:07:06;96973.22;;;21.22;27.02
20971;BME280;10644;48.834;10.088;2023-04-10T12:09:34;96966.38;;;21.12;25.77
20971;BME280;10644;48.834;10.088;2023-04-10T12:12:04;96968.16;;;20.83;26.71
20971;BME280;10644;48.834;10.088;2023-04-10T12:17:00;96980.88;;;20.19;28.63
20971;BME280;10644;48.834;10.088;2023-04-10T12:19:26;96972.16;;;20.68;27.93
20971;BME280;10644;48.834;10.088;2023-04-10T12:21:55;96968.56;;;21.16;26.82
20971;BME280;10644;48.834;10.088;2023-04-10T12:27:29;96975.22;;;21.38;27.10
20971;BME280;10644;48.834;10.088;2023-04-10T12:29:56;96986.53;;;21.65;26.55
20971;BME280;10644;48.834;10.088;2023-04-10T12:32:22;96957.25;;;21.44;26.24
20971;BME280;10644;48.834;10.088;2023-04-10T12:34:52;96964.72;;;21.57;25.98
20971;BME280;10644;48.834;10.088;2023-04-10T12:37:20;96960.00;;;21.43;26.00
20971;BME280;10644;48.834;10.088;2023-04-10T12:39:48;96948.41;;;21.55;26.10
20971;BME280;10644;48.834;10.088;2023-04-10T12:42:22;96951.28;;;21.06;26.58
20971;BME280;10644;48.834;10.088;2023-04-10T12:44:57;96938.13;;;21.07;26.42
20971;BME280;10644;48.834;10.088;2023-04-10T12:47:24;96932.28;;;21.42;26.60
20971;BME280;10644;48.834;10.088;2023-04-10T12:50:10;96911.28;;;21.07;26.63
20971;BME280;10644;48.834;10.088;2023-04-10T12:52:39;96914.59;;;20.90;26.86
20971;BME280;10644;48.834;10.088;2023-04-10T12:55:15;96931.13;;;21.17;27.46
20971;BME280;10644;48.834;10.088;2023-04-10T12:57:45;96918.56;;;21.40;26.72
20971;BME280;10644;48.834;10.088;2023-04-10T13:00:13;96914.63;;;21.63;26.65
20971;BME280;10644;48.834;10.088;2023-04-10T13:02:43;96910.19;;;21.73;26.05
20971;BME280;10644;48.834;10.088;2023-04-10T13:05:08;96898.13;;;21.99;25.96
20971;BME280;10644;48.834;10.088;2023-04-10T13:07:34;96906.72;;;21.82;26.12
20971;BME280;10644;48.834;10.088;2023-04-10T13:10:04;96893.94;;;22.06;25.82
20971;BME280;10644;48.834;10.088;2023-04-10T13:12:30;96880.38;;;22.37;25.16
20971;BME280;10644;48.834;10.088;2023-04-10T13:14:56;96879.84;;;22.69;25.14
20971;BME280;10644;48.834;10.088;2023-04-10T13:17:25;96879.69;;;22.70;25.28
20971;BME280;10644;48.834;10.088;2023-04-10T13:19:51;96877.91;;;22.71;25.23
20971;BME280;10644;48.834;10.088;2023-04-10T13:22:16;96872.38;;;22.99;24.80
20971;BME280;10644;48.834;10.088;2023-04-10T13:24:42;96879.41;;;22.99;23.98
20971;BME280;10644;48.834;10.088;2023-04-10T13:27:09;96882.50;;;22.51;24.33
20971;BME280;10644;48.834;10.088;2023-04-10T13:29:35;96879.75;;;22.53;24.95